createdAt,value
2022-09-28T00:01:15.322Z,1.10
2022-09-28T00:03:44.792Z,1.00
2022-09-28T00:06:14.916Z,2.78
2022-09-28T00:08:42.084Z,1.70
2022-09-28T00:11:12.946Z,1.50
2022-09-28T00:13:40.379Z,1.58
2022-09-28T00:16:11.928Z,2.70
2022-09-28T00:18:38.614Z,2.40
2022-09-28T00:21:08.786Z,2.15
2022-09-28T00:23:57.741Z,1.90
2022-09-28T00:26:25.499Z,0.95
2022-09-28T00:28:59.216Z,0.95
2022-09-28T00:31:29.236Z,2.22
2022-09-28T00:33:57.003Z,1.17
2022-09-28T00:36:27.014Z,1.23
2022-09-28T00:38:56.507Z,3.15
2022-09-28T00:41:25.129Z,0.88
2022-09-28T00:43:53.745Z,1.70
2022-09-28T00:46:34.815Z,0.45
2022-09-28T00:49:07.586Z,1.05
2022-09-28T00:51:38.279Z,2.60
2022-09-28T00:54:07.630Z,0.47
2022-09-28T00:56:40.402Z,1.20
2022-09-28T00:59:10.129Z,0.90
2022-09-28T01:01:37.530Z,1.85
2022-09-28T01:04:07.170Z,0.95
2022-09-28T01:06:36.538Z,2.17
2022-09-28T01:09:05.751Z,3.10
2022-09-28T01:11:35.269Z,3.30
2022-09-28T01:14:06.223Z,1.85
2022-09-28T01:16:43.333Z,0.90
2022-09-28T01:20:00.358Z,3.92
2022-09-28T01:22:36.297Z,0.43
2022-09-28T01:25:21.633Z,3.22
2022-09-28T01:27:54.076Z,1.45
2022-09-28T01:30:22.017Z,0.98
2022-09-28T01:33:04.076Z,3.40
2022-09-28T01:36:01.424Z,2.38
2022-09-28T01:38:37.941Z,1.45
2022-09-28T01:41:06.039Z,1.92
2022-09-28T01:43:39.181Z,0.70
2022-09-28T01:46:22.282Z,1.13
2022-09-28T01:48:58.270Z,1.25
2022-09-28T01:51:34.901Z,2.95
2022-09-28T01:54:12.553Z,1.85
2022-09-28T01:57:33.910Z,4.32
2022-09-28T02:00:18.094Z,2.40
2022-09-28T02:02:59.260Z,1.85
2022-09-28T02:05:48.974Z,2.10
2022-09-28T02:08:26.873Z,1.65
2022-09-28T02:11:14.367Z,3.47
2022-09-28T02:13:46.146Z,1.65
2022-09-28T02:16:40.074Z,4.28
2022-09-28T02:19:11.526Z,2.17
2022-09-28T02:24:20.640Z,1.52
2022-09-28T02:26:50.805Z,4.57
2022-09-28T02:29:18.161Z,1.98
2022-09-28T02:31:45.172Z,2.88
2022-09-28T02:34:11.995Z,1.63
2022-09-28T02:36:39.008Z,2.17
2022-09-28T02:39:06.707Z,2.38
2022-09-28T02:41:55.831Z,1.85
2022-09-28T02:44:47.576Z,3.28
2022-09-28T02:47:46.984Z,2.17
2022-09-28T02:50:33.252Z,0.77
2022-09-28T02:53:21.490Z,0.52
2022-09-28T02:56:00.472Z,3.85
2022-09-28T02:58:27.595Z,2.55
2022-09-28T03:01:14.822Z,1.95
2022-09-28T03:03:55.597Z,0.75
2022-09-28T03:06:33.716Z,1.90
2022-09-28T03:09:08.049Z,1.05
2022-09-28T03:11:47.681Z,3.60
2022-09-28T03:14:15.452Z,2.30
2022-09-28T03:16:50.930Z,0.98
2022-09-28T03:19:23.755Z,1.73
2022-09-28T03:21:51.612Z,3.67
2022-09-28T03:24:18.477Z,1.58
2022-09-28T03:26:45.290Z,3.15
2022-09-28T03:29:13.548Z,1.95
2022-09-28T03:31:40.603Z,1.08
2022-09-28T03:34:07.386Z,1.50
2022-09-28T03:36:34.133Z,2.05
2022-09-28T03:39:00.973Z,1.35
2022-09-28T03:41:28.014Z,2.95
2022-09-28T03:43:54.937Z,2.55
2022-09-28T03:46:24.000Z,5.65
2022-09-28T03:48:58.280Z,1.80
2022-09-28T03:51:25.675Z,1.27
2022-09-28T03:53:53.502Z,1.85
2022-09-28T03:56:21.057Z,0.98
2022-09-28T03:58:47.812Z,1.70
2022-09-28T04:01:17.629Z,2.28
2022-09-28T04:03:46.355Z,1.38
2022-09-28T04:06:13.655Z,1.60
2022-09-28T04:08:40.532Z,0.85
2022-09-28T04:11:08.530Z,6.43
2022-09-28T04:13:35.372Z,4.85
2022-09-28T04:16:02.433Z,1.15
2022-09-28T04:18:33.439Z,1.90
2022-09-28T04:21:23.571Z,2.08
2022-09-28T04:23:58.114Z,2.80
2022-09-28T04:26:27.063Z,0.52
2022-09-28T04:29:12.188Z,2.72
2022-09-28T04:31:48.643Z,3.53
2022-09-28T04:34:21.475Z,1.20
2022-09-28T04:36:50.068Z,3.50
2022-09-28T04:39:19.298Z,3.17
2022-09-28T04:41:52.690Z,3.03
2022-09-28T04:44:19.483Z,6.35
2022-09-28T04:46:48.559Z,3.35
2022-09-28T04:49:30.433Z,0.80
2022-09-28T04:52:02.226Z,2.17
2022-09-28T04:54:28.925Z,1.05
2022-09-28T04:56:57.547Z,1.33
2022-09-28T04:59:24.673Z,2.45
2022-09-28T05:01:51.480Z,2.78
2022-09-28T05:04:36.794Z,5.53
2022-09-28T05:07:11.858Z,1.55
2022-09-28T05:09:38.810Z,2.70
2022-09-28T05:12:05.858Z,3.25
2022-09-28T05:14:32.612Z,3.35
2022-09-28T05:16:59.490Z,2.35
2022-09-28T05:19:26.408Z,1.55
2022-09-28T05:22:04.381Z,5.22
2022-09-28T05:24:36.300Z,5.70
2022-09-28T05:27:03.130Z,3.75
2022-09-28T05:29:32.243Z,2.80
2022-09-28T05:32:17.876Z,1.92
2022-09-28T05:34:51.503Z,3.42
2022-09-28T05:37:24.432Z,4.72
2022-09-28T05:39:51.172Z,2.78
2022-09-28T05:42:17.999Z,2.63
2022-09-28T05:44:44.758Z,6.45
2022-09-28T05:47:12.456Z,2.13
2022-09-28T05:49:39.537Z,2.25
2022-09-28T05:52:06.223Z,1.83
2022-09-28T05:54:37.110Z,4.20
2022-09-28T05:57:05.847Z,3.08
2022-09-28T05:59:35.077Z,2.97
2022-09-28T06:02:03.149Z,3.28
2022-09-28T06:04:30.090Z,5.43
2022-09-28T06:06:57.552Z,2.30
2022-09-28T06:09:26.048Z,3.47
2022-09-28T06:11:57.928Z,2.90
2022-09-28T06:14:32.841Z,1.95
2022-09-28T06:16:59.597Z,3.45
2022-09-28T06:19:26.363Z,2.58
2022-09-28T06:22:05.928Z,2.25
2022-09-28T06:24:37.768Z,3.78
2022-09-28T06:27:04.560Z,3.97
2022-09-28T06:29:31.385Z,3.08
2022-09-28T06:31:58.171Z,1.60
2022-09-28T06:34:25.395Z,1.15
2022-09-28T06:36:52.854Z,3.45
2022-09-28T06:39:19.746Z,0.75
2022-09-28T06:41:46.595Z,4.65
2022-09-28T06:44:19.741Z,4.47
2022-09-28T06:47:04.937Z,0.73
2022-09-28T06:50:11.054Z,0.80
2022-09-28T06:52:58.899Z,0.63
2022-09-28T06:55:43.006Z,0.60
2022-09-28T06:58:12.360Z,0.85
2022-09-28T07:00:40.537Z,1.48
2022-09-28T07:03:15.768Z,1.63
2022-09-28T07:05:56.524Z,0.40
2022-09-28T07:09:06.941Z,1.52
2022-09-28T07:11:59.448Z,1.90
2022-09-28T07:14:47.480Z,3.00
2022-09-28T07:17:15.820Z,0.82
2022-09-28T07:19:43.457Z,0.65
2022-09-28T07:22:18.554Z,1.90
2022-09-28T07:24:48.020Z,1.02
2022-09-28T07:27:33.894Z,0.75
2022-09-28T07:30:14.339Z,0.80
2022-09-28T07:32:56.186Z,1.33
2022-09-28T07:35:38.450Z,3.13
2022-09-28T07:38:07.481Z,1.35
2022-09-28T07:40:54.797Z,2.22
2022-09-28T07:43:24.303Z,2.85
2022-09-28T07:45:57.008Z,3.67
2022-09-28T07:48:23.902Z,0.90
2022-09-28T07:51:10.885Z,2.90
2022-09-28T07:53:44.980Z,3.88
2022-09-28T07:56:37.904Z,2.10
2022-09-28T07:59:36.951Z,1.25
2022-09-28T08:02:28.482Z,6.00
2022-09-28T08:04:56.383Z,2.85
2022-09-28T08:07:24.268Z,5.50
2022-09-28T08:09:58.793Z,2.03
2022-09-28T08:12:28.284Z,6.47
2022-09-28T08:15:10.411Z,6.28
2022-09-28T08:17:50.866Z,3.65
2022-09-28T08:20:38.623Z,5.75
2022-09-28T08:23:07.594Z,4.32
2022-09-28T08:25:38.328Z,5.65
2022-09-28T08:28:07.324Z,3.10
2022-09-28T08:30:39.866Z,7.47
2022-09-28T08:33:21.293Z,4.85
2022-09-28T08:36:06.943Z,4.03
2022-09-28T08:38:51.997Z,5.43
2022-09-28T08:42:11.095Z,2.90
2022-09-28T08:45:23.254Z,4.32
2022-09-28T08:48:48.174Z,6.18
2022-09-28T08:51:42.311Z,3.78
2022-09-28T08:54:33.367Z,5.82
2022-09-28T08:57:12.590Z,6.13
2022-09-28T08:59:53.366Z,2.80
2022-09-28T09:02:33.576Z,6.45
2022-09-28T09:05:19.951Z,4.80
2022-09-28T09:08:31.729Z,4.63
2022-09-28T09:11:17.025Z,6.05
2022-09-28T09:14:09.707Z,7.90
2022-09-28T09:17:00.969Z,4.20
2022-09-28T09:20:06.047Z,4.20
2022-09-28T09:23:15.914Z,6.80
2022-09-28T09:25:54.925Z,3.58
2022-09-28T09:28:57.915Z,3.33
2022-09-28T09:31:42.912Z,6.20
2022-09-28T09:34:19.964Z,4.18
2022-09-28T09:37:04.352Z,5.68
2022-09-28T09:40:39.029Z,7.47
2022-09-28T09:43:58.793Z,3.92
2022-09-28T09:47:04.687Z,6.15
2022-09-28T09:49:39.701Z,3.83
2022-09-28T09:55:10.850Z,4.95
2022-09-28T09:58:00.354Z,3.78
2022-09-28T10:00:43.913Z,5.10
2022-09-28T10:03:28.090Z,5.43
2022-09-28T10:06:27.556Z,4.82
2022-09-28T10:09:20.648Z,3.30
2022-09-28T10:11:52.001Z,7.90
2022-09-28T10:14:22.294Z,7.22
2022-09-28T10:17:05.305Z,7.38
2022-09-28T10:20:16.176Z,3.10
2022-09-28T10:23:14.448Z,3.13
2022-09-28T10:25:46.305Z,5.70
2022-09-28T10:28:19.596Z,4.28
2022-09-28T10:30:46.466Z,5.30
2022-09-28T10:33:34.190Z,3.63
2022-09-28T10:36:07.001Z,2.70
2022-09-28T10:38:34.627Z,2.65
2022-09-28T10:41:13.559Z,3.30
2022-09-28T10:44:06.395Z,3.30
2022-09-28T10:46:59.353Z,2.10
2022-09-28T10:49:28.610Z,3.60
2022-09-28T10:51:57.973Z,5.40
2022-09-28T10:54:31.014Z,1.53
2022-09-28T10:56:59.877Z,4.40
2022-09-28T10:59:52.889Z,0.73
2022-09-28T11:02:36.402Z,3.97
2022-09-28T11:05:22.572Z,3.58
2022-09-28T11:07:52.741Z,2.33
2022-09-28T11:10:30.374Z,6.75
2022-09-28T11:13:03.262Z,6.68
2022-09-28T11:15:34.035Z,4.88
2022-09-28T11:18:32.666Z,1.77
2022-09-28T11:21:27.675Z,4.03
2022-09-28T11:24:07.004Z,3.25
2022-09-28T11:26:43.840Z,5.28
2022-09-28T11:29:36.959Z,5.90
2022-09-28T11:32:24.485Z,4.97
2022-09-28T11:35:21.393Z,4.82
2022-09-28T11:38:27.137Z,6.22
2022-09-28T11:41:24.784Z,9.38
2022-09-28T11:44:21.467Z,9.45
2022-09-28T11:47:20.583Z,6.97
2022-09-28T11:50:00.402Z,6.32
2022-09-28T11:52:54.397Z,12.68
2022-09-28T11:55:21.286Z,9.45
2022-09-28T11:58:05.896Z,13.77
2022-09-28T12:00:40.260Z,11.98
2022-09-28T12:03:15.244Z,12.73
2022-09-28T12:05:52.043Z,9.30
2022-09-28T12:08:27.594Z,7.82
2022-09-28T12:11:15.839Z,9.82
2022-09-28T12:14:06.766Z,8.45
2022-09-28T12:17:07.657Z,12.65
2022-09-28T12:19:42.389Z,11.68
2022-09-28T12:22:45.899Z,8.85
2022-09-28T12:25:19.539Z,9.80
2022-09-28T12:28:08.135Z,13.75
2022-09-28T12:30:40.653Z,11.35
2022-09-28T12:33:17.762Z,10.40
2022-09-28T12:36:02.557Z,9.02
2022-09-28T12:39:14.835Z,10.40
2022-09-28T12:42:32.153Z,13.07
2022-09-28T12:45:27.216Z,12.48
2022-09-28T12:48:32.206Z,13.95
2022-09-28T12:51:31.278Z,13.25
2022-09-28T12:54:14.786Z,10.75
2022-09-28T12:56:56.582Z,12.43
2022-09-28T12:59:32.067Z,13.60
2022-09-28T13:02:34.433Z,10.50
2022-09-28T13:05:24.806Z,13.05
2022-09-28T13:08:26.482Z,10.02
2022-09-28T13:11:14.120Z,10.25
2022-09-28T13:13:46.869Z,12.38
2022-09-28T13:16:26.598Z,13.13
2022-09-28T13:19:30.993Z,5.97
2022-09-28T13:22:06.662Z,6.93
2022-09-28T13:24:38.736Z,6.93
2022-09-28T13:27:13.566Z,9.38
2022-09-28T13:29:41.719Z,8.77
2022-09-28T13:32:09.774Z,12.20
2022-09-28T13:34:37.838Z,7.35
2022-09-28T13:37:24.166Z,11.82
2022-09-28T13:39:59.048Z,11.90
2022-09-28T13:42:44.384Z,9.20
2022-09-28T13:45:30.414Z,7.80
2022-09-28T13:47:59.785Z,6.20
2022-09-28T13:50:48.178Z,11.07
2022-09-28T13:53:42.698Z,9.88
2022-09-28T13:56:27.285Z,14.00
2022-09-28T13:59:15.403Z,13.13
2022-09-28T14:01:59.139Z,13.75
2022-09-28T14:04:53.383Z,10.18
2022-09-28T14:10:07.307Z,10.60
2022-09-28T14:12:33.926Z,8.40
2022-09-28T14:15:28.809Z,8.48
2022-09-28T14:18:10.327Z,10.75
2022-09-28T14:23:30.209Z,11.05
2022-09-28T14:26:11.797Z,10.35
2022-09-28T14:29:16.328Z,14.60
2022-09-28T14:31:43.840Z,8.18
2022-09-28T14:34:31.810Z,13.80
2022-09-28T14:37:17.825Z,12.95
2022-09-28T14:40:04.692Z,9.18
2022-09-28T14:42:31.786Z,13.10
2022-09-28T14:45:06.771Z,10.35
2022-09-28T14:47:41.613Z,11.73
2022-09-28T14:50:20.271Z,8.88
2022-09-28T14:52:51.513Z,9.18
2022-09-28T14:55:26.192Z,11.50
2022-09-28T14:57:57.138Z,12.60
2022-09-28T15:00:26.625Z,13.27
2022-09-28T15:02:59.440Z,12.15
2022-09-28T15:05:42.416Z,16.63
2022-09-28T15:08:11.877Z,12.70
2022-09-28T15:10:48.080Z,15.63
2022-09-28T15:13:28.736Z,15.52
2022-09-28T15:16:03.850Z,11.82
2022-09-28T15:19:01.582Z,12.25
2022-09-28T15:21:40.863Z,10.65
2022-09-28T15:24:33.827Z,16.23
2022-09-28T15:27:02.617Z,14.15
2022-09-28T15:29:33.662Z,11.98
2022-09-28T15:32:00.600Z,13.10
2022-09-28T15:34:45.594Z,16.45
2022-09-28T15:37:13.583Z,12.55
2022-09-28T15:39:40.460Z,16.05
2022-09-28T15:42:07.304Z,12.70
2022-09-28T15:44:42.951Z,16.27
2022-09-28T15:47:25.224Z,11.57
2022-09-28T15:50:01.903Z,11.48
2022-09-28T15:52:37.447Z,18.45
2022-09-28T15:58:15.784Z,17.73
2022-09-28T16:00:44.659Z,14.43
2022-09-28T16:03:11.327Z,18.10
2022-09-28T16:05:49.005Z,15.38
2022-09-28T16:08:24.963Z,9.68
2022-09-28T16:11:30.136Z,10.63
2022-09-28T16:14:08.934Z,15.65
2022-09-28T16:16:48.003Z,12.45
2022-09-28T16:19:37.716Z,13.82
2022-09-28T16:22:17.078Z,15.93
2022-09-28T16:24:54.824Z,18.52
2022-09-28T16:27:29.101Z,13.45
2022-09-28T16:30:14.485Z,18.63
2022-09-28T16:32:52.290Z,11.13
2022-09-28T16:35:21.160Z,19.92
2022-09-28T16:37:56.914Z,17.40
2022-09-28T16:40:24.056Z,15.07
2022-09-28T16:42:51.646Z,8.15
2022-09-28T16:45:21.681Z,13.43
2022-09-28T16:47:52.790Z,16.55
2022-09-28T16:50:22.268Z,14.07
2022-09-28T16:53:15.400Z,13.80
2022-09-28T16:55:42.164Z,20.20
2022-09-28T16:58:08.929Z,16.30
2022-09-28T17:00:36.269Z,15.95
2022-09-28T17:03:13.082Z,17.85
2022-09-28T17:05:40.246Z,16.67
2022-09-28T17:08:07.101Z,12.57
2022-09-28T17:11:12.451Z,16.30
2022-09-28T17:13:33.873Z,15.30
2022-09-28T17:16:01.778Z,12.82
2022-09-28T17:18:31.887Z,13.77
2022-09-28T17:21:03.529Z,14.25
2022-09-28T17:23:30.475Z,13.68
2022-09-28T17:25:58.957Z,11.95
2022-09-28T17:28:32.454Z,10.70
2022-09-28T17:30:59.670Z,13.75
2022-09-28T17:33:26.524Z,18.42
2022-09-28T17:36:00.151Z,12.73
2022-09-28T17:38:27.655Z,16.48
2022-09-28T17:40:54.377Z,10.80
2022-09-28T17:43:22.244Z,15.65
2022-09-28T17:45:50.393Z,19.15
2022-09-28T17:48:20.742Z,18.55
2022-09-28T17:50:47.547Z,15.93
2022-09-28T17:53:14.716Z,16.90
2022-09-28T17:55:43.102Z,18.45
2022-09-28T17:58:21.538Z,11.45
2022-09-28T18:00:50.846Z,14.02
2022-09-28T18:03:20.684Z,14.05
2022-09-28T18:05:49.777Z,10.45
2022-09-28T18:08:21.153Z,15.98
2022-09-28T18:13:14.654Z,20.90
2022-09-28T18:15:41.774Z,16.50
2022-09-28T18:18:09.824Z,18.30
2022-09-28T18:20:37.822Z,17.33
2022-09-28T18:23:05.153Z,15.98
2022-09-28T18:25:31.901Z,14.27
2022-09-28T18:28:00.247Z,16.70
2022-09-28T18:30:27.981Z,8.60
2022-09-28T18:32:54.904Z,12.95
2022-09-28T18:35:23.109Z,17.25
2022-09-28T18:37:50.601Z,15.30
2022-09-28T18:40:17.531Z,12.80
2022-09-28T18:42:44.303Z,13.93
2022-09-28T18:45:11.354Z,13.55
2022-09-28T18:47:39.286Z,12.55
2022-09-28T18:50:06.761Z,10.38
2022-09-28T18:52:37.514Z,11.35
2022-09-28T18:55:05.963Z,16.63
2022-09-28T18:57:35.490Z,13.63
2022-09-28T19:00:08.289Z,12.20
2022-09-28T19:02:35.506Z,8.88
2022-09-28T19:05:02.275Z,13.13
2022-09-28T19:07:29.284Z,9.77
2022-09-28T19:09:55.997Z,12.65
2022-09-28T19:12:23.871Z,8.82
2022-09-28T19:14:50.511Z,8.45
2022-09-28T19:17:18.146Z,14.25
2022-09-28T19:19:45.033Z,16.38
2022-09-28T19:22:12.508Z,14.50
2022-09-28T19:24:39.292Z,11.50
2022-09-28T19:27:06.017Z,15.38
2022-09-28T19:29:33.221Z,11.75
2022-09-28T19:32:00.139Z,8.60
2022-09-28T19:34:30.087Z,14.18
2022-09-28T19:36:57.244Z,8.93
2022-09-28T19:39:24.036Z,7.78
2022-09-28T19:41:54.343Z,15.25
2022-09-28T19:44:25.444Z,3.75
2022-09-28T19:47:21.711Z,14.15
2022-09-28T19:49:49.145Z,9.70
2022-09-28T19:52:16.810Z,10.00
2022-09-28T19:54:57.710Z,11.07
2022-09-28T19:57:27.861Z,13.40
2022-09-28T20:00:00.935Z,10.25
2022-09-28T20:02:33.299Z,14.02
2022-09-28T20:05:00.161Z,11.15
2022-09-28T20:07:26.858Z,9.80
2022-09-28T20:09:53.606Z,12.77
2022-09-28T20:12:20.425Z,12.63
2022-09-28T20:14:47.149Z,9.65
2022-09-28T20:17:13.937Z,12.65
2022-09-28T20:19:40.658Z,7.80
2022-09-28T20:22:07.460Z,13.52
2022-09-28T20:24:34.200Z,12.27
2022-09-28T20:27:01.433Z,10.48
2022-09-28T20:29:28.412Z,11.05
2022-09-28T20:31:55.098Z,13.63
2022-09-28T20:34:21.772Z,9.68
2022-09-28T20:36:48.523Z,10.10
2022-09-28T20:39:15.299Z,14.82
2022-09-28T20:41:42.180Z,10.05
2022-09-28T20:44:10.026Z,13.15
2022-09-28T20:46:37.093Z,10.48
2022-09-28T20:49:05.259Z,9.90
2022-09-28T20:51:32.025Z,9.60
2022-09-28T20:53:59.198Z,10.27
2022-09-28T20:56:39.723Z,15.85
2022-09-28T20:59:12.852Z,14.63
2022-09-28T21:01:40.750Z,12.18
2022-09-28T21:04:09.699Z,15.20
2022-09-28T21:06:38.815Z,10.38
2022-09-28T21:09:07.464Z,10.27
2022-09-28T21:11:36.017Z,12.88
2022-09-28T21:14:06.297Z,18.63
2022-09-28T21:16:34.883Z,9.30
2022-09-28T21:19:01.942Z,10.77
2022-09-28T21:21:28.746Z,15.02
2022-09-28T21:23:56.585Z,13.50
2022-09-28T21:26:26.080Z,12.93
2022-09-28T21:29:06.804Z,14.38
2022-09-28T21:31:46.693Z,10.57
2022-09-28T21:34:21.221Z,16.70
2022-09-28T21:36:51.297Z,9.77
2022-09-28T21:39:18.969Z,10.23
2022-09-28T21:41:45.781Z,12.80
2022-09-28T21:44:12.587Z,7.60
2022-09-28T21:46:39.513Z,8.57
2022-09-28T21:49:08.140Z,11.45
2022-09-28T21:51:35.823Z,14.90
2022-09-28T21:54:02.538Z,15.68
2022-09-28T21:56:29.282Z,9.98
2022-09-28T21:58:55.975Z,13.98
2022-09-28T22:01:25.591Z,13.75
2022-09-28T22:03:56.432Z,11.75
2022-09-28T22:06:27.955Z,12.18
2022-09-28T22:08:55.322Z,15.70
2022-09-28T22:11:24.985Z,13.25
2022-09-28T22:13:54.414Z,11.27
2022-09-28T22:16:24.309Z,8.90
2022-09-28T22:18:51.220Z,7.32
2022-09-28T22:21:21.005Z,10.88
2022-09-28T22:23:48.493Z,13.73
2022-09-28T22:26:23.888Z,13.15
2022-09-28T22:28:58.936Z,11.02
2022-09-28T22:31:29.460Z,10.73
2022-09-28T22:33:56.757Z,12.20
2022-09-28T22:36:23.930Z,9.43
2022-09-28T22:38:50.689Z,13.75
2022-09-28T22:41:20.891Z,5.63
2022-09-28T22:43:49.711Z,10.73
2022-09-28T22:46:22.349Z,14.27
2022-09-28T22:48:52.626Z,13.75
2022-09-28T22:51:20.095Z,8.25
2022-09-28T22:53:47.416Z,8.80
2022-09-28T22:56:18.515Z,15.48
2022-09-28T22:58:46.738Z,10.63
2022-09-28T23:01:22.672Z,13.65
2022-09-28T23:03:53.717Z,11.60
2022-09-28T23:06:26.136Z,10.27
2022-09-28T23:08:56.249Z,12.38
2022-09-28T23:11:23.303Z,10.88
2022-09-28T23:13:54.364Z,6.72
2022-09-28T23:16:23.627Z,10.38
2022-09-28T23:18:50.489Z,9.27
2022-09-28T23:21:20.089Z,9.38
2022-09-28T23:23:57.140Z,8.15
2022-09-28T23:26:27.054Z,14.35
2022-09-28T23:28:54.512Z,15.55
2022-09-28T23:31:27.265Z,12.75
2022-09-28T23:34:01.762Z,9.38
2022-09-28T23:36:28.613Z,15.63
2022-09-28T23:38:55.339Z,14.07
2022-09-28T23:41:22.191Z,13.23
2022-09-28T23:43:49.022Z,16.85
2022-09-28T23:46:20.482Z,21.33
2022-09-28T23:48:48.842Z,7.13
2022-09-28T23:51:15.591Z,13.70
2022-09-28T23:53:43.287Z,7.53
2022-09-28T23:56:10.073Z,19.75
2022-09-28T23:58:36.792Z,15.45
